sensor_id;sensor_type;location;lat;lon;timestamp;P1;durP1;ratioP1;P2;durP2;ratioP2
60243;SDS011;46106;51.468;5.814;2022-12-18T00:01:46;77.45;;;27.20;;
60243;SDS011;46106;51.468;5.814;2022-12-18T00:04:23;77.47;;;26.80;;
60243;SDS011;46106;51.468;5.814;2022-12-18T00:06:50;84.18;;;29.05;;
60243;SDS011;46106;51.468;5.814;2022-12-18T00:09:16;73.50;;;26.20;;
60243;SDS011;46106;51.468;5.814;2022-12-18T00:11:41;68.13;;;25.88;;
60243;SDS011;46106;51.468;5.814;2022-12-18T00:14:08;81.82;;;25.63;;
60243;SDS011;46106;51.468;5.814;2022-12-18T00:16:35;71.30;;;25.92;;
60243;SDS011;46106;51.468;5.814;2022-12-18T00:19:02;80.22;;;25.83;;
60243;SDS011;46106;51.468;5.814;2022-12-18T00:21:29;65.75;;;24.83;;
60243;SDS011;46106;51.468;5.814;2022-12-18T00:23:55;68.25;;;24.50;;
60243;SDS011;46106;51.468;5.814;2022-12-18T00:26:22;63.63;;;24.08;;
60243;SDS011;46106;51.468;5.814;2022-12-18T00:28:49;74.63;;;24.33;;
60243;SDS011;46106;51.468;5.814;2022-12-18T00:31:16;76.05;;;24.83;;
60243;SDS011;46106;51.468;5.814;2022-12-18T00:33:43;69.75;;;23.83;;
60243;SDS011;46106;51.468;5.814;2022-12-18T00:36:10;60.22;;;24.27;;
60243;SDS011;46106;51.468;5.814;2022-12-18T00:38:38;67.90;;;24.80;;
60243;SDS011;46106;51.468;5.814;2022-12-18T00:41:06;65.72;;;23.30;;
60243;SDS011;46106;51.468;5.814;2022-12-18T00:43:32;76.15;;;24.02;;
60243;SDS011;46106;51.468;5.814;2022-12-18T00:45:59;64.05;;;24.42;;
60243;SDS011;46106;51.468;5.814;2022-12-18T00:48:25;69.25;;;23.90;;
60243;SDS011;46106;51.468;5.814;2022-12-18T00:50:51;60.95;;;22.30;;
60243;SDS011;46106;51.468;5.814;2022-12-18T00:53:17;63.33;;;23.73;;
60243;SDS011;46106;51.468;5.814;2022-12-18T00:55:43;67.60;;;23.52;;
60243;SDS011;46106;51.468;5.814;2022-12-18T00:58:09;51.22;;;21.02;;
60243;SDS011;46106;51.468;5.814;2022-12-18T01:00:35;61.08;;;22.20;;
60243;SDS011;46106;51.468;5.814;2022-12-18T01:03:01;60.28;;;21.48;;
60243;SDS011;46106;51.468;5.814;2022-12-18T01:05:27;54.72;;;20.55;;
60243;SDS011;46106;51.468;5.814;2022-12-18T01:07:53;54.30;;;21.58;;
60243;SDS011;46106;51.468;5.814;2022-12-18T01:10:18;67.38;;;22.23;;
60243;SDS011;46106;51.468;5.814;2022-12-18T01:12:44;57.17;;;21.33;;
60243;SDS011;46106;51.468;5.814;2022-12-18T01:15:10;53.22;;;20.70;;
60243;SDS011;46106;51.468;5.814;2022-12-18T01:17:37;68.43;;;21.10;;
60243;SDS011;46106;51.468;5.814;2022-12-18T01:20:03;50.40;;;19.85;;
60243;SDS011;46106;51.468;5.814;2022-12-18T01:22:29;55.50;;;21.92;;
60243;SDS011;46106;51.468;5.814;2022-12-18T01:24:55;65.90;;;21.23;;
60243;SDS011;46106;51.468;5.814;2022-12-18T01:27:20;53.50;;;20.00;;
60243;SDS011;46106;51.468;5.814;2022-12-18T01:29:46;54.42;;;20.92;;
60243;SDS011;46106;51.468;5.814;2022-12-18T01:32:11;55.00;;;20.58;;
60243;SDS011;46106;51.468;5.814;2022-12-18T01:34:37;57.60;;;19.10;;
60243;SDS011;46106;51.468;5.814;2022-12-18T01:37:03;57.00;;;19.45;;
60243;SDS011;46106;51.468;5.814;2022-12-18T01:39:29;44.30;;;18.52;;
60243;SDS011;46106;51.468;5.814;2022-12-18T01:41:54;51.45;;;18.98;;
60243;SDS011;46106;51.468;5.814;2022-12-18T01:49:55;51.55;;;18.90;;
60243;SDS011;46106;51.468;5.814;2022-12-18T01:52:22;65.35;;;19.55;;
60243;SDS011;46106;51.468;5.814;2022-12-18T01:54:51;47.42;;;18.63;;
60243;SDS011;46106;51.468;5.814;2022-12-18T01:57:17;54.03;;;17.80;;
60243;SDS011;46106;51.468;5.814;2022-12-18T01:59:44;52.38;;;20.20;;
60243;SDS011;46106;51.468;5.814;2022-12-18T02:02:15;43.50;;;17.70;;
60243;SDS011;46106;51.468;5.814;2022-12-18T02:04:41;52.25;;;20.30;;
60243;SDS011;46106;51.468;5.814;2022-12-18T02:07:17;53.97;;;18.80;;
60243;SDS011;46106;51.468;5.814;2022-12-18T02:10:00;51.22;;;17.85;;
60243;SDS011;46106;51.468;5.814;2022-12-18T02:12:38;52.85;;;18.35;;
60243;SDS011;46106;51.468;5.814;2022-12-18T02:15:15;44.97;;;17.92;;
60243;SDS011;46106;51.468;5.814;2022-12-18T02:17:45;62.58;;;19.77;;
60243;SDS011;46106;51.468;5.814;2022-12-18T02:26:34;61.53;;;17.63;;
60243;SDS011;46106;51.468;5.814;2022-12-18T02:29:13;51.88;;;18.30;;
60243;SDS011;46106;51.468;5.814;2022-12-18T02:31:50;48.00;;;17.30;;
60243;SDS011;46106;51.468;5.814;2022-12-18T02:34:19;44.03;;;16.77;;
60243;SDS011;46106;51.468;5.814;2022-12-18T02:36:48;52.85;;;17.98;;
60243;SDS011;46106;51.468;5.814;2022-12-18T02:39:15;46.35;;;18.05;;
60243;SDS011;46106;51.468;5.814;2022-12-18T02:41:41;49.33;;;18.38;;
60243;SDS011;46106;51.468;5.814;2022-12-18T02:44:08;45.70;;;18.05;;
60243;SDS011;46106;51.468;5.814;2022-12-18T02:46:38;43.28;;;18.13;;
60243;SDS011;46106;51.468;5.814;2022-12-18T02:54:50;45.20;;;18.15;;
60243;SDS011;46106;51.468;5.814;2022-12-18T03:00:22;42.10;;;17.08;;
60243;SDS011;46106;51.468;5.814;2022-12-18T03:02:58;44.90;;;17.85;;
60243;SDS011;46106;51.468;5.814;2022-12-18T03:05:31;51.42;;;18.50;;
60243;SDS011;46106;51.468;5.814;2022-12-18T03:08:25;52.30;;;17.77;;
60243;SDS011;46106;51.468;5.814;2022-12-18T03:10:57;49.50;;;18.73;;
60243;SDS011;46106;51.468;5.814;2022-12-18T03:13:31;40.17;;;16.48;;
60243;SDS011;46106;51.468;5.814;2022-12-18T03:16:00;41.00;;;16.90;;
60243;SDS011;46106;51.468;5.814;2022-12-18T03:21:34;51.97;;;18.27;;
60243;SDS011;46106;51.468;5.814;2022-12-18T03:24:04;44.90;;;17.17;;
60243;SDS011;46106;51.468;5.814;2022-12-18T03:26:32;41.63;;;17.17;;
60243;SDS011;46106;51.468;5.814;2022-12-18T03:29:02;40.95;;;16.48;;
60243;SDS011;46106;51.468;5.814;2022-12-18T03:31:32;41.63;;;15.85;;
60243;SDS011;46106;51.468;5.814;2022-12-18T03:33:58;42.08;;;16.00;;
60243;SDS011;46106;51.468;5.814;2022-12-18T03:36:39;44.30;;;15.20;;
60243;SDS011;46106;51.468;5.814;2022-12-18T03:39:05;39.63;;;15.70;;
60243;SDS011;46106;51.468;5.814;2022-12-18T03:44:19;43.03;;;16.15;;
60243;SDS011;46106;51.468;5.814;2022-12-18T03:52:14;38.30;;;14.95;;
60243;SDS011;46106;51.468;5.814;2022-12-18T03:54:52;35.92;;;15.43;;
60243;SDS011;46106;51.468;5.814;2022-12-18T03:57:20;38.85;;;16.67;;
60243;SDS011;46106;51.468;5.814;2022-12-18T03:59:49;40.45;;;17.20;;
60243;SDS011;46106;51.468;5.814;2022-12-18T04:02:17;47.38;;;16.08;;
60243;SDS011;46106;51.468;5.814;2022-12-18T04:04:44;36.63;;;14.90;;
60243;SDS011;46106;51.468;5.814;2022-12-18T04:07:11;40.00;;;15.60;;
60243;SDS011;46106;51.468;5.814;2022-12-18T04:09:38;40.22;;;14.20;;
60243;SDS011;46106;51.468;5.814;2022-12-18T04:12:05;35.53;;;14.55;;
60243;SDS011;46106;51.468;5.814;2022-12-18T04:14:31;29.58;;;13.20;;
60243;SDS011;46106;51.468;5.814;2022-12-18T04:17:00;31.33;;;12.98;;
60243;SDS011;46106;51.468;5.814;2022-12-18T04:19:26;35.78;;;14.57;;
60243;SDS011;46106;51.468;5.814;2022-12-18T04:21:55;39.28;;;14.63;;
60243;SDS011;46106;51.468;5.814;2022-12-18T04:24:20;48.58;;;16.38;;
60243;SDS011;46106;51.468;5.814;2022-12-18T04:26:45;25.95;;;11.40;;
60243;SDS011;46106;51.468;5.814;2022-12-18T04:29:11;37.83;;;15.02;;
60243;SDS011;46106;51.468;5.814;2022-12-18T04:31:36;38.08;;;15.32;;
60243;SDS011;46106;51.468;5.814;2022-12-18T04:34:02;36.58;;;15.10;;
60243;SDS011;46106;51.468;5.814;2022-12-18T04:36:27;30.13;;;13.15;;
60243;SDS011;46106;51.468;5.814;2022-12-18T04:38:53;34.30;;;14.38;;
60243;SDS011;46106;51.468;5.814;2022-12-18T04:41:18;39.88;;;14.60;;
60243;SDS011;46106;51.468;5.814;2022-12-18T04:43:43;42.35;;;14.57;;
60243;SDS011;46106;51.468;5.814;2022-12-18T04:46:09;39.90;;;14.88;;
60243;SDS011;46106;51.468;5.814;2022-12-18T04:48:36;36.10;;;14.55;;
60243;SDS011;46106;51.468;5.814;2022-12-18T04:51:03;33.88;;;13.32;;
60243;SDS011;46106;51.468;5.814;2022-12-18T04:53:29;35.47;;;14.15;;
60243;SDS011;46106;51.468;5.814;2022-12-18T04:56:09;45.35;;;14.95;;
60243;SDS011;46106;51.468;5.814;2022-12-18T04:58:36;28.20;;;12.63;;
60243;SDS011;46106;51.468;5.814;2022-12-18T05:01:02;33.35;;;13.40;;
60243;SDS011;46106;51.468;5.814;2022-12-18T05:03:28;39.47;;;14.05;;
60243;SDS011;46106;51.468;5.814;2022-12-18T05:05:53;40.40;;;14.80;;
60243;SDS011;46106;51.468;5.814;2022-12-18T05:08:19;32.78;;;14.75;;
60243;SDS011;46106;51.468;5.814;2022-12-18T05:10:44;33.38;;;14.98;;
60243;SDS011;46106;51.468;5.814;2022-12-18T05:13:10;39.35;;;15.65;;
60243;SDS011;46106;51.468;5.814;2022-12-18T05:15:35;32.53;;;15.30;;
60243;SDS011;46106;51.468;5.814;2022-12-18T05:18:01;37.88;;;15.38;;
60243;SDS011;46106;51.468;5.814;2022-12-18T05:20:27;34.83;;;14.93;;
60243;SDS011;46106;51.468;5.814;2022-12-18T05:22:53;34.40;;;15.77;;
60243;SDS011;46106;51.468;5.814;2022-12-18T05:25:19;38.75;;;16.50;;
60243;SDS011;46106;51.468;5.814;2022-12-18T05:27:46;38.40;;;14.98;;
60243;SDS011;46106;51.468;5.814;2022-12-18T05:30:11;35.97;;;13.98;;
60243;SDS011;46106;51.468;5.814;2022-12-18T05:32:38;36.35;;;14.52;;
60243;SDS011;46106;51.468;5.814;2022-12-18T05:35:03;33.08;;;14.52;;
60243;SDS011;46106;51.468;5.814;2022-12-18T05:37:30;36.05;;;15.00;;
60243;SDS011;46106;51.468;5.814;2022-12-18T05:39:56;36.67;;;15.15;;
60243;SDS011;46106;51.468;5.814;2022-12-18T05:42:21;47.53;;;16.13;;
60243;SDS011;46106;51.468;5.814;2022-12-18T05:44:47;30.42;;;13.32;;
60243;SDS011;46106;51.468;5.814;2022-12-18T05:47:12;41.28;;;16.73;;
60243;SDS011;46106;51.468;5.814;2022-12-18T05:49:38;33.17;;;14.90;;
60243;SDS011;46106;51.468;5.814;2022-12-18T05:52:03;40.22;;;14.73;;
60243;SDS011;46106;51.468;5.814;2022-12-18T05:54:29;35.20;;;15.18;;
60243;SDS011;46106;51.468;5.814;2022-12-18T05:56:55;31.80;;;14.85;;
60243;SDS011;46106;51.468;5.814;2022-12-18T05:59:21;38.17;;;14.90;;
60243;SDS011;46106;51.468;5.814;2022-12-18T06:01:47;41.28;;;16.42;;
60243;SDS011;46106;51.468;5.814;2022-12-18T06:04:12;31.52;;;15.35;;
60243;SDS011;46106;51.468;5.814;2022-12-18T06:06:37;37.35;;;15.45;;
60243;SDS011;46106;51.468;5.814;2022-12-18T06:09:03;32.03;;;14.23;;
60243;SDS011;46106;51.468;5.814;2022-12-18T06:11:33;36.05;;;14.38;;
60243;SDS011;46106;51.468;5.814;2022-12-18T06:14:00;40.75;;;15.98;;
60243;SDS011;46106;51.468;5.814;2022-12-18T06:16:26;38.05;;;15.63;;
60243;SDS011;46106;51.468;5.814;2022-12-18T06:18:55;34.95;;;13.73;;
60243;SDS011;46106;51.468;5.814;2022-12-18T06:21:25;35.70;;;14.48;;
60243;SDS011;46106;51.468;5.814;2022-12-18T06:23:51;38.53;;;15.63;;
60243;SDS011;46106;51.468;5.814;2022-12-18T06:29:38;35.92;;;14.80;;
60243;SDS011;46106;51.468;5.814;2022-12-18T06:32:04;35.70;;;14.35;;
60243;SDS011;46106;51.468;5.814;2022-12-18T06:34:30;41.50;;;15.43;;
60243;SDS011;46106;51.468;5.814;2022-12-18T06:36:56;32.78;;;14.82;;
60243;SDS011;46106;51.468;5.814;2022-12-18T06:39:21;34.65;;;15.32;;
60243;SDS011;46106;51.468;5.814;2022-12-18T06:41:46;43.92;;;14.55;;
60243;SDS011;46106;51.468;5.814;2022-12-18T06:44:12;40.38;;;16.20;;
60243;SDS011;46106;51.468;5.814;2022-12-18T06:46:37;36.58;;;15.38;;
60243;SDS011;46106;51.468;5.814;2022-12-18T06:49:03;39.33;;;14.27;;
60243;SDS011;46106;51.468;5.814;2022-12-18T06:51:28;28.27;;;14.05;;
60243;SDS011;46106;51.468;5.814;2022-12-18T06:53:54;41.03;;;14.60;;
60243;SDS011;46106;51.468;5.814;2022-12-18T06:56:19;42.67;;;14.90;;
60243;SDS011;46106;51.468;5.814;2022-12-18T06:58:50;34.40;;;14.80;;
60243;SDS011;46106;51.468;5.814;2022-12-18T07:01:16;31.52;;;14.18;;
60243;SDS011;46106;51.468;5.814;2022-12-18T07:03:41;41.40;;;14.80;;
60243;SDS011;46106;51.468;5.814;2022-12-18T07:06:12;36.15;;;14.40;;
60243;SDS011;46106;51.468;5.814;2022-12-18T07:08:39;41.22;;;15.30;;
60243;SDS011;46106;51.468;5.814;2022-12-18T07:11:04;34.50;;;13.68;;
60243;SDS011;46106;51.468;5.814;2022-12-18T07:13:30;44.10;;;15.23;;
60243;SDS011;46106;51.468;5.814;2022-12-18T07:16:02;30.15;;;13.43;;
60243;SDS011;46106;51.468;5.814;2022-12-18T07:18:28;33.35;;;15.75;;
60243;SDS011;46106;51.468;5.814;2022-12-18T07:20:54;34.65;;;14.35;;
60243;SDS011;46106;51.468;5.814;2022-12-18T07:23:19;35.42;;;15.02;;
60243;SDS011;46106;51.468;5.814;2022-12-18T07:25:47;39.88;;;14.95;;
60243;SDS011;46106;51.468;5.814;2022-12-18T07:28:13;38.53;;;14.95;;
60243;SDS011;46106;51.468;5.814;2022-12-18T07:30:39;35.58;;;15.45;;
60243;SDS011;46106;51.468;5.814;2022-12-18T07:33:05;39.30;;;14.73;;
60243;SDS011;46106;51.468;5.814;2022-12-18T07:35:30;35.22;;;14.93;;
60243;SDS011;46106;51.468;5.814;2022-12-18T07:37:57;34.40;;;13.38;;
60243;SDS011;46106;51.468;5.814;2022-12-18T07:40:22;34.15;;;14.18;;
60243;SDS011;46106;51.468;5.814;2022-12-18T07:42:48;36.25;;;13.70;;
60243;SDS011;46106;51.468;5.814;2022-12-18T07:45:13;34.28;;;14.70;;
60243;SDS011;46106;51.468;5.814;2022-12-18T07:47:39;32.63;;;14.35;;
60243;SDS011;46106;51.468;5.814;2022-12-18T07:50:06;34.92;;;13.80;;
60243;SDS011;46106;51.468;5.814;2022-12-18T07:52:31;43.72;;;15.45;;
60243;SDS011;46106;51.468;5.814;2022-12-18T07:54:57;28.48;;;13.80;;
60243;SDS011;46106;51.468;5.814;2022-12-18T07:57:22;39.08;;;15.57;;
60243;SDS011;46106;51.468;5.814;2022-12-18T07:59:48;36.53;;;14.70;;
60243;SDS011;46106;51.468;5.814;2022-12-18T08:02:13;31.98;;;14.48;;
60243;SDS011;46106;51.468;5.814;2022-12-18T08:04:39;42.22;;;16.85;;
60243;SDS011;46106;51.468;5.814;2022-12-18T08:07:05;31.00;;;14.00;;
60243;SDS011;46106;51.468;5.814;2022-12-18T08:09:30;35.47;;;16.65;;
60243;SDS011;46106;51.468;5.814;2022-12-18T08:11:56;42.35;;;14.77;;
60243;SDS011;46106;51.468;5.814;2022-12-18T08:14:21;42.20;;;15.85;;
60243;SDS011;46106;51.468;5.814;2022-12-18T08:16:47;40.67;;;16.00;;
60243;SDS011;46106;51.468;5.814;2022-12-18T08:19:13;36.80;;;15.07;;
60243;SDS011;46106;51.468;5.814;2022-12-18T08:21:38;34.80;;;14.50;;
60243;SDS011;46106;51.468;5.814;2022-12-18T08:24:04;36.65;;;16.02;;
60243;SDS011;46106;51.468;5.814;2022-12-18T08:26:30;35.65;;;15.20;;
60243;SDS011;46106;51.468;5.814;2022-12-18T08:28:57;35.50;;;15.52;;
60243;SDS011;46106;51.468;5.814;2022-12-18T08:31:24;34.92;;;15.90;;
60243;SDS011;46106;51.468;5.814;2022-12-18T08:33:51;39.90;;;14.75;;
60243;SDS011;46106;51.468;5.814;2022-12-18T08:36:18;37.97;;;16.85;;
60243;SDS011;46106;51.468;5.814;2022-12-18T08:38:44;34.15;;;14.30;;
60243;SDS011;46106;51.468;5.814;2022-12-18T08:41:12;35.33;;;15.75;;
60243;SDS011;46106;51.468;5.814;2022-12-18T08:43:39;36.55;;;15.70;;
60243;SDS011;46106;51.468;5.814;2022-12-18T08:46:24;45.65;;;16.20;;
60243;SDS011;46106;51.468;5.814;2022-12-18T08:48:51;37.60;;;15.80;;
60243;SDS011;46106;51.468;5.814;2022-12-18T08:51:18;33.92;;;14.75;;
60243;SDS011;46106;51.468;5.814;2022-12-18T08:53:44;41.78;;;16.25;;
60243;SDS011;46106;51.468;5.814;2022-12-18T08:56:10;43.05;;;15.88;;
60243;SDS011;46106;51.468;5.814;2022-12-18T08:58:37;35.45;;;15.73;;
60243;SDS011;46106;51.468;5.814;2022-12-18T09:01:03;41.97;;;17.63;;
60243;SDS011;46106;51.468;5.814;2022-12-18T09:03:30;30.30;;;14.13;;
60243;SDS011;46106;51.468;5.814;2022-12-18T09:05:55;36.33;;;16.15;;
60243;SDS011;46106;51.468;5.814;2022-12-18T09:08:21;41.75;;;15.98;;
60243;SDS011;46106;51.468;5.814;2022-12-18T09:10:47;42.97;;;16.42;;
60243;SDS011;46106;51.468;5.814;2022-12-18T09:13:14;35.10;;;14.57;;
60243;SDS011;46106;51.468;5.814;2022-12-18T09:15:44;32.22;;;16.13;;
60243;SDS011;46106;51.468;5.814;2022-12-18T09:18:12;34.15;;;16.17;;
60243;SDS011;46106;51.468;5.814;2022-12-18T09:20:39;30.40;;;14.32;;
60243;SDS011;46106;51.468;5.814;2022-12-18T09:23:05;39.03;;;14.75;;
60243;SDS011;46106;51.468;5.814;2022-12-18T09:25:31;34.10;;;15.35;;
60243;SDS011;46106;51.468;5.814;2022-12-18T09:28:01;34.88;;;15.07;;
60243;SDS011;46106;51.468;5.814;2022-12-18T09:30:28;38.53;;;16.00;;
60243;SDS011;46106;51.468;5.814;2022-12-18T09:32:54;33.70;;;14.77;;
60243;SDS011;46106;51.468;5.814;2022-12-18T09:35:19;40.65;;;15.95;;
60243;SDS011;46106;51.468;5.814;2022-12-18T09:37:48;35.08;;;14.48;;
60243;SDS011;46106;51.468;5.814;2022-12-18T09:40:14;32.50;;;14.13;;
60243;SDS011;46106;51.468;5.814;2022-12-18T09:42:41;38.58;;;14.63;;
60243;SDS011;46106;51.468;5.814;2022-12-18T09:45:12;39.28;;;15.45;;
60243;SDS011;46106;51.468;5.814;2022-12-18T09:47:40;31.45;;;14.60;;
60243;SDS011;46106;51.468;5.814;2022-12-18T09:50:24;33.70;;;15.30;;
60243;SDS011;46106;51.468;5.814;2022-12-18T09:52:56;38.05;;;14.13;;
60243;SDS011;46106;51.468;5.814;2022-12-18T09:55:34;38.67;;;15.98;;
60243;SDS011;46106;51.468;5.814;2022-12-18T10:01:00;39.85;;;14.82;;
60243;SDS011;46106;51.468;5.814;2022-12-18T10:03:25;32.83;;;13.68;;
60243;SDS011;46106;51.468;5.814;2022-12-18T10:08:49;37.13;;;15.38;;
60243;SDS011;46106;51.468;5.814;2022-12-18T10:17:22;38.03;;;15.85;;
60243;SDS011;46106;51.468;5.814;2022-12-18T10:25:48;33.65;;;14.50;;
60243;SDS011;46106;51.468;5.814;2022-12-18T10:28:19;28.95;;;13.25;;
60243;SDS011;46106;51.468;5.814;2022-12-18T10:30:45;31.20;;;15.15;;
60243;SDS011;46106;51.468;5.814;2022-12-18T10:33:12;36.15;;;15.25;;
60243;SDS011;46106;51.468;5.814;2022-12-18T10:35:41;26.50;;;12.48;;
60243;SDS011;46106;51.468;5.814;2022-12-18T10:38:20;30.73;;;12.90;;
60243;SDS011;46106;51.468;5.814;2022-12-18T10:43:13;31.45;;;14.25;;
60243;SDS011;46106;51.468;5.814;2022-12-18T10:45:40;33.28;;;14.57;;
60243;SDS011;46106;51.468;5.814;2022-12-18T10:48:22;29.98;;;13.93;;
60243;SDS011;46106;51.468;5.814;2022-12-18T10:50:49;31.20;;;14.05;;
60243;SDS011;46106;51.468;5.814;2022-12-18T10:53:24;30.52;;;13.50;;
60243;SDS011;46106;51.468;5.814;2022-12-18T10:55:55;32.28;;;14.38;;
60243;SDS011;46106;51.468;5.814;2022-12-18T10:58:32;25.58;;;12.88;;
60243;SDS011;46106;51.468;5.814;2022-12-18T11:08:41;32.20;;;11.80;;
60243;SDS011;46106;51.468;5.814;2022-12-18T11:11:15;31.55;;;13.70;;
60243;SDS011;46106;51.468;5.814;2022-12-18T11:16:34;32.95;;;14.20;;
60243;SDS011;46106;51.468;5.814;2022-12-18T11:19:29;31.83;;;13.35;;
60243;SDS011;46106;51.468;5.814;2022-12-18T11:21:58;27.67;;;14.00;;
60243;SDS011;46106;51.468;5.814;2022-12-18T11:26:51;30.05;;;14.38;;
60243;SDS011;46106;51.468;5.814;2022-12-18T11:29:18;32.78;;;14.30;;
60243;SDS011;46106;51.468;5.814;2022-12-18T11:31:49;34.15;;;13.75;;
60243;SDS011;46106;51.468;5.814;2022-12-18T11:34:30;33.80;;;14.57;;
60243;SDS011;46106;51.468;5.814;2022-12-18T11:36:58;36.97;;;15.23;;
60243;SDS011;46106;51.468;5.814;2022-12-18T11:39:36;28.02;;;12.85;;
60243;SDS011;46106;51.468;5.814;2022-12-18T11:42:17;32.63;;;14.77;;
60243;SDS011;46106;51.468;5.814;2022-12-18T11:47:28;29.23;;;13.82;;
60243;SDS011;46106;51.468;5.814;2022-12-18T11:49:55;33.30;;;14.82;;
60243;SDS011;46106;51.468;5.814;2022-12-18T11:52:31;34.22;;;14.60;;
60243;SDS011;46106;51.468;5.814;2022-12-18T11:58:12;28.83;;;13.88;;
60243;SDS011;46106;51.468;5.814;2022-12-18T12:17:04;30.08;;;13.73;;
60243;SDS011;46106;51.468;5.814;2022-12-18T12:19:50;35.78;;;14.63;;
60243;SDS011;46106;51.468;5.814;2022-12-18T12:33:33;35.00;;;14.13;;
60243;SDS011;46106;51.468;5.814;2022-12-18T12:36:34;28.55;;;13.23;;
60243;SDS011;46106;51.468;5.814;2022-12-18T12:39:10;29.60;;;12.60;;
60243;SDS011;46106;51.468;5.814;2022-12-18T12:41:39;30.20;;;13.93;;
60243;SDS011;46106;51.468;5.814;2022-12-18T12:44:33;29.05;;;13.27;;
60243;SDS011;46106;51.468;5.814;2022-12-18T12:47:50;30.85;;;14.00;;
60243;SDS011;46106;51.468;5.814;2022-12-18T12:49:58;36.05;;;14.95;;
60243;SDS011;46106;51.468;5.814;2022-12-18T12:53:07;36.17;;;15.00;;
60243;SDS011;46106;51.468;5.814;2022-12-18T12:55:20;33.38;;;15.30;;
60243;SDS011;46106;51.468;5.814;2022-12-18T13:00:22;37.08;;;16.23;;
60243;SDS011;46106;51.468;5.814;2022-12-18T13:07:57;34.45;;;14.55;;
60243;SDS011;46106;51.468;5.814;2022-12-18T13:10:32;29.83;;;13.02;;
60243;SDS011;46106;51.468;5.814;2022-12-18T13:20:40;32.30;;;13.88;;
60243;SDS011;46106;51.468;5.814;2022-12-18T13:30:57;28.88;;;13.77;;
60243;SDS011;46106;51.468;5.814;2022-12-18T13:36:03;33.00;;;14.88;;
60243;SDS011;46106;51.468;5.814;2022-12-18T13:38:34;29.13;;;13.55;;
60243;SDS011;46106;51.468;5.814;2022-12-18T13:43:32;33.33;;;15.18;;
60243;SDS011;46106;51.468;5.814;2022-12-18T13:49:03;32.47;;;14.95;;
60243;SDS011;46106;51.468;5.814;2022-12-18T13:51:47;26.17;;;13.18;;
60243;SDS011;46106;51.468;5.814;2022-12-18T13:56:45;33.40;;;13.85;;
60243;SDS011;46106;51.468;5.814;2022-12-18T13:59:17;37.78;;;12.98;;
60243;SDS011;46106;51.468;5.814;2022-12-18T14:04:24;27.48;;;12.70;;
60243;SDS011;46106;51.468;5.814;2022-12-18T14:06:51;33.38;;;14.30;;
60243;SDS011;46106;51.468;5.814;2022-12-18T14:09:27;33.10;;;14.27;;
60243;SDS011;46106;51.468;5.814;2022-12-18T14:11:55;31.38;;;14.45;;
60243;SDS011;46106;51.468;5.814;2022-12-18T14:14:43;31.05;;;13.73;;
60243;SDS011;46106;51.468;5.814;2022-12-18T14:17:12;47.45;;;16.10;;
60243;SDS011;46106;51.468;5.814;2022-12-18T14:19:42;31.90;;;14.60;;
60243;SDS011;46106;51.468;5.814;2022-12-18T14:22:18;30.17;;;13.45;;
60243;SDS011;46106;51.468;5.814;2022-12-18T14:24:46;34.20;;;14.30;;
60243;SDS011;46106;51.468;5.814;2022-12-18T14:27:13;35.08;;;15.65;;
60243;SDS011;46106;51.468;5.814;2022-12-18T14:29:46;35.75;;;15.07;;
60243;SDS011;46106;51.468;5.814;2022-12-18T14:32:13;30.23;;;13.43;;
60243;SDS011;46106;51.468;5.814;2022-12-18T14:34:44;32.10;;;14.13;;
60243;SDS011;46106;51.468;5.814;2022-12-18T14:37:11;32.25;;;15.43;;
60243;SDS011;46106;51.468;5.814;2022-12-18T14:39:39;28.75;;;13.60;;
60243;SDS011;46106;51.468;5.814;2022-12-18T14:42:05;32.28;;;13.65;;
60243;SDS011;46106;51.468;5.814;2022-12-18T14:44:30;30.77;;;13.98;;
60243;SDS011;46106;51.468;5.814;2022-12-18T14:46:56;34.08;;;14.65;;
60243;SDS011;46106;51.468;5.814;2022-12-18T14:49:27;30.23;;;14.07;;
60243;SDS011;46106;51.468;5.814;2022-12-18T14:51:59;33.65;;;14.90;;
60243;SDS011;46106;51.468;5.814;2022-12-18T14:54:26;31.60;;;14.23;;
60243;SDS011;46106;51.468;5.814;2022-12-18T14:59:29;31.55;;;15.07;;
60243;SDS011;46106;51.468;5.814;2022-12-18T15:02:04;35.50;;;14.75;;
60243;SDS011;46106;51.468;5.814;2022-12-18T15:04:39;32.03;;;15.25;;
60243;SDS011;46106;51.468;5.814;2022-12-18T15:12:45;37.22;;;14.73;;
60243;SDS011;46106;51.468;5.814;2022-12-18T15:20:48;37.53;;;16.02;;
60243;SDS011;46106;51.468;5.814;2022-12-18T15:23:24;37.47;;;15.05;;
60243;SDS011;46106;51.468;5.814;2022-12-18T15:25:56;42.30;;;14.85;;
60243;SDS011;46106;51.468;5.814;2022-12-18T15:31:04;32.13;;;14.27;;
60243;SDS011;46106;51.468;5.814;2022-12-18T15:33:30;34.10;;;14.65;;
60243;SDS011;46106;51.468;5.814;2022-12-18T15:35:58;35.63;;;14.45;;
60243;SDS011;46106;51.468;5.814;2022-12-18T15:38:26;39.65;;;15.52;;
60243;SDS011;46106;51.468;5.814;2022-12-18T15:40:54;33.55;;;14.70;;
60243;SDS011;46106;51.468;5.814;2022-12-18T15:43:23;33.65;;;14.80;;
60243;SDS011;46106;51.468;5.814;2022-12-18T15:46:00;37.33;;;14.82;;
60243;SDS011;46106;51.468;5.814;2022-12-18T15:48:31;32.95;;;14.73;;
60243;SDS011;46106;51.468;5.814;2022-12-18T15:50:59;33.40;;;14.98;;
60243;SDS011;46106;51.468;5.814;2022-12-18T15:53:27;33.05;;;14.10;;
60243;SDS011;46106;51.468;5.814;2022-12-18T15:55:56;32.80;;;14.65;;
60243;SDS011;46106;51.468;5.814;2022-12-18T15:58:41;37.92;;;14.63;;
60243;SDS011;46106;51.468;5.814;2022-12-18T16:01:07;32.83;;;13.73;;
60243;SDS011;46106;51.468;5.814;2022-12-18T16:03:34;35.97;;;13.40;;
60243;SDS011;46106;51.468;5.814;2022-12-18T16:05:59;29.58;;;13.35;;
60243;SDS011;46106;51.468;5.814;2022-12-18T16:08:27;32.85;;;13.82;;
60243;SDS011;46106;51.468;5.814;2022-12-18T16:10:54;33.88;;;13.93;;
60243;SDS011;46106;51.468;5.814;2022-12-18T16:13:20;36.90;;;15.13;;
60243;SDS011;46106;51.468;5.814;2022-12-18T16:15:46;33.00;;;14.27;;
60243;SDS011;46106;51.468;5.814;2022-12-18T16:18:11;33.05;;;14.45;;
60243;SDS011;46106;51.468;5.814;2022-12-18T16:20:37;30.42;;;14.10;;
60243;SDS011;46106;51.468;5.814;2022-12-18T16:23:03;22.50;;;10.50;;
60243;SDS011;46106;51.468;5.814;2022-12-18T16:25:29;37.97;;;13.43;;
60243;SDS011;46106;51.468;5.814;2022-12-18T16:27:55;31.63;;;14.60;;
60243;SDS011;46106;51.468;5.814;2022-12-18T16:30:23;26.88;;;13.02;;
60243;SDS011;46106;51.468;5.814;2022-12-18T16:32:52;40.22;;;15.65;;
60243;SDS011;46106;51.468;5.814;2022-12-18T16:35:18;39.20;;;14.20;;
60243;SDS011;46106;51.468;5.814;2022-12-18T16:37:43;34.97;;;14.57;;
60243;SDS011;46106;51.468;5.814;2022-12-18T16:40:10;37.42;;;14.07;;
60243;SDS011;46106;51.468;5.814;2022-12-18T16:42:41;31.63;;;14.57;;
60243;SDS011;46106;51.468;5.814;2022-12-18T16:45:09;32.35;;;12.73;;
60243;SDS011;46106;51.468;5.814;2022-12-18T16:47:37;27.48;;;12.98;;
60243;SDS011;46106;51.468;5.814;2022-12-18T16:50:03;33.78;;;14.75;;
60243;SDS011;46106;51.468;5.814;2022-12-18T16:52:30;37.97;;;14.57;;
60243;SDS011;46106;51.468;5.814;2022-12-18T16:54:56;35.70;;;15.57;;
60243;SDS011;46106;51.468;5.814;2022-12-18T16:57:21;30.90;;;14.38;;
60243;SDS011;46106;51.468;5.814;2022-12-18T16:59:47;36.75;;;15.13;;
60243;SDS011;46106;51.468;5.814;2022-12-18T17:02:14;32.60;;;14.25;;
60243;SDS011;46106;51.468;5.814;2022-12-18T17:04:41;40.40;;;16.48;;